Port Ewen, New York
Current Conditions -  °F | °C
As of 8:53 AM on Sunday 25 Jan 2015 (Local Time) from KPOU Reporting Station
Broken Clouds Broken Clouds  
Wind Chill: 27°   Ceiling: 6000
Heat Index: 37°   Visibility: 10mi
Dew Point: 20°   Wind: 17mph
Humidity: 50%   Direction: 270°W
Pressure: 29.65"   Gusts: 28mph
Location:  41.91°N, 73.98°W
Report Text: KPOU 251353Z 27015G24KT 10SM SCT050 BKN060 03/M07 A2965 RMK AO2 SLP041 T00281067
Loading
Personal Weather Stations






























Interactive Weather Map New forecast layout! Learn more

10-Day Weather Forecast

Advertisements
Track Severe Weather on mobile